Topas — LJQM — position and weather

sailwx.info

Track history (hours):
 
Tides and Currents Weather Stations Pressure Air Temp Water Temp Dewpoint Dewpoint Depression Visibility Wind Speed Wind Dir Waves Ship Positions

Topas

Last reported at 2017-Dec-11 15:45 UTC. Time now 2017-Dec-17 23:26 UTC.
Position N 62°30' E 006°06'.

Length 28 m; draft 4.5 m.

Type: Fishing. MMSI: 259648000.

Date/timePositionNaut miles runAvg speedWind from/ knotsBaromVisibWave heightAir tempDewpointWater temp
2017-Dec-11 15:45N 62°30' E 006°06'1 5.1
2017-Dec-11 15:30N 62°30' E 006°08'3 7.0
2017-Dec-11 15:00N 62°32' E 006°13'2 2.0
2017-Dec-11 14:10N 62°33' E 006°16'0 0.0
2017-Dec-11 13:58N 62°33' E 006°16'0 0.1
2017-Dec-11 13:30N 62°33' E 006°16'0 0.0
2017-Dec-11 11:30N 62°33' E 006°16'0 0.6
2017-Dec-11 11:00N 62°33' E 006°16'2 4.3
2017-Dec-11 10:30N 62°35' E 006°14'11 6.6
2017-Dec-11 08:50N 62°43' E 006°30'3 6.7
2017-Dec-11 08:23N 62°46' E 006°33'4 7.0
2017-Dec-11 07:53N 62°49' E 006°37'3 6.8
2017-Dec-11 07:29N 62°51' E 006°40'15 7.1
2017-Dec-11 05:26N 63°01' E 007°04'4 8.5
2017-Dec-11 05:00N 63°02' E 007°12'4 8.4
2017-Dec-11 04:30N 63°03' E 007°20'4 8.4
2017-Dec-11 04:00N 63°05' E 007°29'4 8.4
2017-Dec-11 03:30N 63°08' E 007°36'4 8.0
2017-Dec-11 03:00N 63°10' E 007°44'4 7.9
2017-Dec-11 02:30N 63°12' E 007°51'4 8.1
2017-Dec-11 02:00N 63°14' E 007°59'4 8.0
2017-Dec-11 01:30N 63°16' E 008°07'40 8.3
2017-Dec-10 20:37N 63°36' E 009°26'2 9.3
2017-Dec-10 20:24N 63°37' E 009°28'3 8.0
2017-Dec-10 20:00N 63°41' E 009°29'73 1.6
2017-Dec-08 21:34N 64°42' E 010°56'1 7.8
2017-Dec-08 21:30N 64°43' E 010°57'4 7.7
2017-Dec-08 20:59N 64°46' E 011°03'4 7.9
2017-Dec-08 20:30N 64°49' E 011°08'4 8.0
2017-Dec-08 20:00N 64°52' E 011°16'4 8.4
2017-Dec-08 19:30N 64°55' E 011°22'4 8.2
2017-Dec-08 19:00N 64°57' E 011°30'4 7.9
2017-Dec-08 18:30N 64°60' E 011°37'4 8.0
2017-Dec-08 18:00N 65°03' E 011°44'4 8.2
2017-Dec-08 17:30N 65°06' E 011°48'4 8.0
2017-Dec-08 17:00N 65°10' E 011°51'4 7.8
2017-Dec-08 16:29N 65°14' E 011°55'4 7.8
2017-Dec-08 16:00N 65°17' E 011°58'65 4.5
2017-Dec-08 01:39N 66°18' E 012°56'1 8.1
2017-Dec-08 01:30N 66°19' E 012°57'4 8.3
2017-Dec-08 01:00N 66°23' E 012°58'4 7.6
2017-Dec-08 00:25N 66°28' E 012°59'3 7.7
2017-Dec-07 23:59N 66°31' E 012°58'21 7.7
2017-Dec-07 21:15N 66°51' E 013°18'3 8.4
2017-Dec-07 20:52N 66°53' E 013°24'3 8.4
2017-Dec-07 20:30N 66°55' E 013°29'3 6.9
2017-Dec-07 20:00N 66°58' E 013°34'4 8.1
2017-Dec-07 19:30N 67°00' E 013°43'4 8.3
2017-Dec-07 19:00N 67°03' E 013°51'4 7.9
2017-Dec-07 18:30N 67°06' E 013°57'4 8.0
2017-Dec-07 18:00N 67°09' E 014°03'4 7.1
2017-Dec-07 17:30N 67°12' E 014°07'4 7.3
2017-Dec-07 17:00N 67°16' E 014°12'4 7.9
2017-Dec-07 16:30N 67°19' E 014°18'4 8.5
2017-Dec-07 16:00N 67°22' E 014°24'4 7.8
2017-Dec-07 15:30N 67°26' E 014°28'3 6.7
2017-Dec-07 15:00N 67°29' E 014°29'117 6.5
2017-Dec-06 20:53N 69°06' E 017°29'  
2017-Dec-04 04:04N 69°08' E 017°40'1 9.1
2017-Dec-04 04:00N 69°07' E 017°38'114 8.7
2017-Dec-03 14:57N 67°37' E 014°31'4 8.4
2017-Dec-03 14:30N 67°33' E 014°30'4 8.4
2017-Dec-03 14:01N 67°29' E 014°29'4 8.1
2017-Dec-03 13:30N 67°25' E 014°27'4 8.4
2017-Dec-03 13:01N 67°21' E 014°23'4 8.9
2017-Dec-03 12:30N 67°18' E 014°16'4 8.8
2017-Dec-03 12:00N 67°14' E 014°10'4 9.0
2017-Dec-03 11:31N 67°10' E 014°04'5 9.5
2017-Dec-03 11:00N 67°06' E 013°58'5 9.5
2017-Dec-03 10:31N 67°03' E 013°50'5 9.1
2017-Dec-03 10:00N 67°00' E 013°40'5 9.2
2017-Dec-03 09:30N 66°58' E 013°30'4 8.5
2017-Dec-03 09:00N 66°54' E 013°26'4 8.9
2017-Dec-03 08:30N 66°51' E 013°18'7 9.1
2017-Dec-03 07:43N 66°44' E 013°12'13 8.7
2017-Dec-03 06:12N 66°32' E 012°58'2 9.2
2017-Dec-03 06:01N 66°30' E 012°59'5 9.3
2017-Dec-03 05:31N 66°25' E 012°59'5 9.3
2017-Dec-03 05:01N 66°21' E 012°58'10 9.2
2017-Dec-03 03:59N 66°12' E 012°52'7 9.5
2017-Dec-03 03:17N 66°06' E 012°43'46 8.9
2017-Dec-02 22:09N 65°23' E 012°06'6 9.1
2017-Dec-02 21:30N 65°18' E 011°59'4 8.8
2017-Dec-02 21:00N 65°14' E 011°55'4 8.7
2017-Dec-02 20:30N 65°10' E 011°51'4 8.9
2017-Dec-02 20:00N 65°05' E 011°47'5 9.3
2017-Dec-02 19:30N 65°01' E 011°42'5 9.1
2017-Dec-02 19:00N 64°58' E 011°34'5 9.7
2017-Dec-02 18:30N 64°55' E 011°25'510.0
2017-Dec-02 18:01N 64°52' E 011°16'5 9.6
2017-Dec-02 17:30N 64°49' E 011°08'7 7.9
2017-Dec-02 16:37N 64°42' E 011°06'68 7.7
2017-Dec-02 07:48N 63°47' E 009°33'2 7.5
2017-Dec-02 07:30N 63°45' E 009°34'  
Track history (hours):
 
Tides and Currents Weather Stations Pressure Air Temp Water Temp Dewpoint Dewpoint Depression Visibility Wind Speed Wind Dir Waves Ship Positions

Topas

Last reported at 2017-Dec-11 15:45 UTC. Time now 2017-Dec-17 23:26 UTC.
Position N 62°30' E 006°06'.

Length 28 m; draft 4.5 m.

Type: Fishing. MMSI: 259648000.

Date/timePositionNaut miles runAvg speedWind from/ knotsBaromVisibWave heightAir tempDewpointWater temp
2017-Dec-11 15:45N 62°30' E 006°06'1 5.1
2017-Dec-11 15:30N 62°30' E 006°08'3 7.0
2017-Dec-11 15:00N 62°32' E 006°13'2 2.0
2017-Dec-11 14:10N 62°33' E 006°16'0 0.0
2017-Dec-11 13:58N 62°33' E 006°16'0 0.1
2017-Dec-11 13:30N 62°33' E 006°16'0 0.0
2017-Dec-11 11:30N 62°33' E 006°16'0 0.6
2017-Dec-11 11:00N 62°33' E 006°16'2 4.3
2017-Dec-11 10:30N 62°35' E 006°14'11 6.6
2017-Dec-11 08:50N 62°43' E 006°30'3 6.7
2017-Dec-11 08:23N 62°46' E 006°33'4 7.0
2017-Dec-11 07:53N 62°49' E 006°37'3 6.8
2017-Dec-11 07:29N 62°51' E 006°40'15 7.1
2017-Dec-11 05:26N 63°01' E 007°04'4 8.5
2017-Dec-11 05:00N 63°02' E 007°12'4 8.4
2017-Dec-11 04:30N 63°03' E 007°20'4 8.4
2017-Dec-11 04:00N 63°05' E 007°29'4 8.4
2017-Dec-11 03:30N 63°08' E 007°36'4 8.0
2017-Dec-11 03:00N 63°10' E 007°44'4 7.9
2017-Dec-11 02:30N 63°12' E 007°51'4 8.1
2017-Dec-11 02:00N 63°14' E 007°59'4 8.0
2017-Dec-11 01:30N 63°16' E 008°07'40 8.3
2017-Dec-10 20:37N 63°36' E 009°26'2 9.3
2017-Dec-10 20:24N 63°37' E 009°28'3 8.0
2017-Dec-10 20:00N 63°41' E 009°29'73 1.6
2017-Dec-08 21:34N 64°42' E 010°56'1 7.8
2017-Dec-08 21:30N 64°43' E 010°57'4 7.7
2017-Dec-08 20:59N 64°46' E 011°03'4 7.9
2017-Dec-08 20:30N 64°49' E 011°08'4 8.0
2017-Dec-08 20:00N 64°52' E 011°16'4 8.4
2017-Dec-08 19:30N 64°55' E 011°22'4 8.2
2017-Dec-08 19:00N 64°57' E 011°30'4 7.9
2017-Dec-08 18:30N 64°60' E 011°37'4 8.0
2017-Dec-08 18:00N 65°03' E 011°44'4 8.2
2017-Dec-08 17:30N 65°06' E 011°48'4 8.0
2017-Dec-08 17:00N 65°10' E 011°51'4 7.8
2017-Dec-08 16:29N 65°14' E 011°55'4 7.8
2017-Dec-08 16:00N 65°17' E 011°58'65 4.5
2017-Dec-08 01:39N 66°18' E 012°56'1 8.1
2017-Dec-08 01:30N 66°19' E 012°57'4 8.3
2017-Dec-08 01:00N 66°23' E 012°58'4 7.6
2017-Dec-08 00:25N 66°28' E 012°59'3 7.7
2017-Dec-07 23:59N 66°31' E 012°58'21 7.7
2017-Dec-07 21:15N 66°51' E 013°18'3 8.4
2017-Dec-07 20:52N 66°53' E 013°24'3 8.4
2017-Dec-07 20:30N 66°55' E 013°29'3 6.9
2017-Dec-07 20:00N 66°58' E 013°34'4 8.1
2017-Dec-07 19:30N 67°00' E 013°43'4 8.3
2017-Dec-07 19:00N 67°03' E 013°51'4 7.9
2017-Dec-07 18:30N 67°06' E 013°57'4 8.0
2017-Dec-07 18:00N 67°09' E 014°03'4 7.1
2017-Dec-07 17:30N 67°12' E 014°07'4 7.3
2017-Dec-07 17:00N 67°16' E 014°12'4 7.9
2017-Dec-07 16:30N 67°19' E 014°18'4 8.5
2017-Dec-07 16:00N 67°22' E 014°24'4 7.8
2017-Dec-07 15:30N 67°26' E 014°28'3 6.7
2017-Dec-07 15:00N 67°29' E 014°29'117 6.5
2017-Dec-06 20:53N 69°06' E 017°29'  
2017-Dec-04 04:04N 69°08' E 017°40'1 9.1
2017-Dec-04 04:00N 69°07' E 017°38'114 8.7
2017-Dec-03 14:57N 67°37' E 014°31'4 8.4
2017-Dec-03 14:30N 67°33' E 014°30'4 8.4
2017-Dec-03 14:01N 67°29' E 014°29'4 8.1
2017-Dec-03 13:30N 67°25' E 014°27'4 8.4
2017-Dec-03 13:01N 67°21' E 014°23'4 8.9
2017-Dec-03 12:30N 67°18' E 014°16'4 8.8
2017-Dec-03 12:00N 67°14' E 014°10'4 9.0
2017-Dec-03 11:31N 67°10' E 014°04'5 9.5
2017-Dec-03 11:00N 67°06' E 013°58'5 9.5
2017-Dec-03 10:31N 67°03' E 013°50'5 9.1
2017-Dec-03 10:00N 67°00' E 013°40'5 9.2
2017-Dec-03 09:30N 66°58' E 013°30'4 8.5
2017-Dec-03 09:00N 66°54' E 013°26'4 8.9
2017-Dec-03 08:30N 66°51' E 013°18'7 9.1
2017-Dec-03 07:43N 66°44' E 013°12'13 8.7
2017-Dec-03 06:12N 66°32' E 012°58'2 9.2
2017-Dec-03 06:01N 66°30' E 012°59'5 9.3
2017-Dec-03 05:31N 66°25' E 012°59'5 9.3
2017-Dec-03 05:01N 66°21' E 012°58'10 9.2
2017-Dec-03 03:59N 66°12' E 012°52'7 9.5
2017-Dec-03 03:17N 66°06' E 012°43'46 8.9
2017-Dec-02 22:09N 65°23' E 012°06'6 9.1
2017-Dec-02 21:30N 65°18' E 011°59'4 8.8
2017-Dec-02 21:00N 65°14' E 011°55'4 8.7
2017-Dec-02 20:30N 65°10' E 011°51'4 8.9
2017-Dec-02 20:00N 65°05' E 011°47'5 9.3
2017-Dec-02 19:30N 65°01' E 011°42'5 9.1
2017-Dec-02 19:00N 64°58' E 011°34'5 9.7
2017-Dec-02 18:30N 64°55' E 011°25'510.0
2017-Dec-02 18:01N 64°52' E 011°16'5 9.6
2017-Dec-02 17:30N 64°49' E 011°08'7 7.9
2017-Dec-02 16:37N 64°42' E 011°06'68 7.7
2017-Dec-02 07:48N 63°47' E 009°33'2 7.5
2017-Dec-02 07:30N 63°45' E 009°34'  

Dump ship's entire track history